createdAt,value
2023-03-06T00:00:38.994Z,2.17
2023-03-06T00:03:06.372Z,2.16
2023-03-06T00:05:32.964Z,2.12
2023-03-06T00:07:59.944Z,2.09
2023-03-06T00:10:29.059Z,2.06
2023-03-06T00:13:01.121Z,2.03
2023-03-06T00:15:28.265Z,1.98
2023-03-06T00:17:56.253Z,1.96
2023-03-06T00:20:22.725Z,1.94
2023-03-06T00:22:49.293Z,1.95
2023-03-06T00:25:18.951Z,1.96
2023-03-06T00:27:45.536Z,1.94
2023-03-06T00:30:15.294Z,1.91
2023-03-06T00:32:42.255Z,1.91
2023-03-06T00:35:09.502Z,1.93
2023-03-06T00:37:36.104Z,1.94
2023-03-06T00:40:05.838Z,1.90
2023-03-06T00:42:32.434Z,1.90
2023-03-06T00:44:59.161Z,1.86
2023-03-06T00:47:25.715Z,1.77
2023-03-06T00:49:52.318Z,1.72
2023-03-06T00:52:18.791Z,1.64
2023-03-06T00:54:45.237Z,1.66
2023-03-06T00:57:11.847Z,1.68
2023-03-06T00:59:38.426Z,1.67
2023-03-06T01:02:05.145Z,1.68
2023-03-06T01:04:31.651Z,1.65
2023-03-06T01:06:58.236Z,1.66
2023-03-06T01:09:24.990Z,1.64
2023-03-06T01:11:51.589Z,1.65
2023-03-06T01:14:19.389Z,1.64
2023-03-06T01:16:46.758Z,1.65
2023-03-06T01:19:13.807Z,1.64
2023-03-06T01:21:40.574Z,1.65
2023-03-06T01:24:07.664Z,1.62
2023-03-06T01:26:34.584Z,1.60
2023-03-06T01:29:01.605Z,1.62
2023-03-06T01:31:28.093Z,1.61
2023-03-06T01:33:57.667Z,1.59
2023-03-06T01:36:24.396Z,1.61
2023-03-06T01:38:50.929Z,1.65
2023-03-06T01:41:18.535Z,1.68
2023-03-06T01:43:47.046Z,1.69
2023-03-06T01:46:32.023Z,1.73
2023-03-06T01:49:04.754Z,1.71
2023-03-06T01:52:08.279Z,1.71
2023-03-06T01:54:45.645Z,1.68
2023-03-06T01:57:25.378Z,1.66
2023-03-06T02:00:07.276Z,1.60
2023-03-06T02:02:34.134Z,1.56
2023-03-06T02:05:46.349Z,1.48
2023-03-06T02:08:16.485Z,1.42
2023-03-06T02:10:57.255Z,1.36
2023-03-06T02:13:49.808Z,1.34
2023-03-06T02:16:26.411Z,1.28
2023-03-06T02:19:00.986Z,1.27
2023-03-06T02:21:35.444Z,1.21
2023-03-06T02:24:33.818Z,1.20
2023-03-06T02:27:04.031Z,1.17
2023-03-06T02:29:32.046Z,1.13
2023-03-06T02:32:19.425Z,1.11
2023-03-06T02:34:55.729Z,1.09
2023-03-06T02:37:27.024Z,1.06
2023-03-06T02:40:01.173Z,1.03
2023-03-06T02:42:29.206Z,1.05
2023-03-06T02:44:59.011Z,1.03
2023-03-06T02:47:26.514Z,1.04
2023-03-06T02:49:56.005Z,1.05
2023-03-06T02:52:22.965Z,1.11
2023-03-06T02:54:52.881Z,1.18
2023-03-06T02:57:19.697Z,1.26
2023-03-06T02:59:49.797Z,1.31
2023-03-06T03:02:21.410Z,1.37
2023-03-06T03:04:48.670Z,1.41
2023-03-06T03:07:15.876Z,1.43
2023-03-06T03:09:44.342Z,1.44
2023-03-06T03:12:14.806Z,1.48
2023-03-06T03:14:44.573Z,1.51
2023-03-06T03:17:18.436Z,1.52
2023-03-06T03:19:48.099Z,1.54
2023-03-06T03:22:30.196Z,1.54
2023-03-06T03:24:59.793Z,1.54
2023-03-06T03:27:27.964Z,1.54
2023-03-06T03:29:58.240Z,1.56
2023-03-06T03:32:30.607Z,1.56
2023-03-06T03:35:01.400Z,1.55
2023-03-06T03:37:35.543Z,1.57
2023-03-06T03:40:06.153Z,1.59
2023-03-06T03:42:33.007Z,1.59
2023-03-06T03:45:02.634Z,1.62
2023-03-06T03:47:34.183Z,1.63
2023-03-06T03:50:01.028Z,1.61
2023-03-06T03:52:28.002Z,1.63
2023-03-06T03:55:22.555Z,1.62
2023-03-06T03:57:52.659Z,1.64
2023-03-06T04:00:25.586Z,1.66
2023-03-06T04:02:59.437Z,1.68
2023-03-06T04:05:33.388Z,1.71
2023-03-06T04:13:45.028Z,1.90
2023-03-06T04:16:13.124Z,1.91
2023-03-06T04:18:40.751Z,1.92
2023-03-06T04:21:12.824Z,1.93
2023-03-06T04:23:42.657Z,1.94
2023-03-06T04:26:11.912Z,1.93
2023-03-06T04:28:38.756Z,1.90
2023-03-06T04:31:10.581Z,1.91
2023-03-06T04:33:42.592Z,1.93
2023-03-06T04:36:28.179Z,1.93
2023-03-06T04:38:58.466Z,1.96
2023-03-06T04:41:27.150Z,1.96
2023-03-06T04:43:57.209Z,1.95
2023-03-06T04:46:49.979Z,1.94
2023-03-06T04:49:35.380Z,1.93
2023-03-06T04:52:03.941Z,1.93
2023-03-06T04:54:34.180Z,1.93
2023-03-06T04:57:01.149Z,1.94
2023-03-06T04:59:32.559Z,1.94
2023-03-06T05:01:59.161Z,1.95
2023-03-06T05:04:29.167Z,1.98
2023-03-06T05:06:57.254Z,1.99
2023-03-06T05:09:26.715Z,2.02
2023-03-06T05:12:00.648Z,2.02
2023-03-06T05:14:33.948Z,2.04
2023-03-06T05:17:03.138Z,2.05
2023-03-06T05:19:37.129Z,2.04
2023-03-06T05:22:05.833Z,2.08
2023-03-06T05:24:41.597Z,2.12
2023-03-06T05:27:11.388Z,2.17
2023-03-06T05:29:38.152Z,2.22
2023-03-06T05:32:10.323Z,2.23
2023-03-06T05:34:36.937Z,2.28
2023-03-06T05:37:05.097Z,2.29
2023-03-06T05:39:32.567Z,2.29
2023-03-06T05:42:03.883Z,2.28
2023-03-06T05:44:36.208Z,2.29
2023-03-06T05:47:09.334Z,2.28
2023-03-06T05:49:40.570Z,2.26
2023-03-06T05:52:12.185Z,2.25
2023-03-06T05:54:44.020Z,2.21
2023-03-06T05:57:10.663Z,2.19
2023-03-06T05:59:37.522Z,2.15
2023-03-06T06:02:13.188Z,2.12
2023-03-06T06:04:54.256Z,2.09
2023-03-06T06:07:20.970Z,2.04
2023-03-06T06:09:53.574Z,2.02
2023-03-06T06:12:26.210Z,2.01
2023-03-06T06:14:53.078Z,2.00
2023-03-06T06:17:20.593Z,1.99
2023-03-06T06:19:48.898Z,1.99
2023-03-06T06:22:19.145Z,1.99
2023-03-06T06:24:46.662Z,2.01
2023-03-06T06:29:55.616Z,2.06
2023-03-06T06:32:43.756Z,2.09
2023-03-06T06:35:36.253Z,2.14
2023-03-06T06:38:28.825Z,2.19
2023-03-06T06:41:35.663Z,2.23
2023-03-06T06:43:59.023Z,2.31
2023-03-06T06:47:18.270Z,2.39
2023-03-06T06:49:23.997Z,2.47
2023-03-06T06:51:50.723Z,2.55
2023-03-06T06:54:25.372Z,2.57
2023-03-06T06:56:55.472Z,2.62
2023-03-06T06:59:27.438Z,2.64
2023-03-06T07:02:01.320Z,2.67
2023-03-06T07:04:33.530Z,2.72
2023-03-06T07:09:45.079Z,2.81
2023-03-06T07:12:14.366Z,2.89
2023-03-06T07:14:56.144Z,2.92
2023-03-06T07:17:24.379Z,2.97
2023-03-06T07:19:58.228Z,3.08
2023-03-06T07:22:26.205Z,3.25
2023-03-06T07:24:54.272Z,3.43
2023-03-06T07:27:24.472Z,3.71
2023-03-06T07:29:59.447Z,4.03
2023-03-06T07:32:26.244Z,4.31
2023-03-06T07:35:19.298Z,4.61
2023-03-06T07:37:53.092Z,5.51
2023-03-06T07:40:24.246Z,6.72
2023-03-06T07:42:56.546Z,7.82
2023-03-06T07:45:26.450Z,8.65
2023-03-06T07:47:55.318Z,8.77
2023-03-06T07:50:23.555Z,8.95
2023-03-06T07:52:50.899Z,10.12
2023-03-06T07:55:18.696Z,11.26
2023-03-06T07:57:46.217Z,11.67
2023-03-06T08:05:41.649Z,11.99
2023-03-06T08:10:52.566Z,12.06
2023-03-06T08:13:34.237Z,10.96
2023-03-06T08:18:46.442Z,9.87
2023-03-06T08:24:01.736Z,10.34
2023-03-06T08:26:31.356Z,10.99
2023-03-06T08:29:00.772Z,10.99
2023-03-06T08:31:32.722Z,10.65
2023-03-06T08:34:04.042Z,10.45
2023-03-06T08:36:31.546Z,10.05
2023-03-06T08:38:59.129Z,9.83
2023-03-06T08:41:28.488Z,9.87
2023-03-06T08:43:57.431Z,10.09
2023-03-06T08:46:28.450Z,10.53
2023-03-06T08:49:02.736Z,11.42
2023-03-06T08:51:30.240Z,12.03
2023-03-06T08:54:01.407Z,12.79
2023-03-06T08:56:34.617Z,13.32
2023-03-06T08:59:21.268Z,13.31
2023-03-06T09:01:54.758Z,13.51
2023-03-06T09:04:24.352Z,12.43
2023-03-06T09:06:51.311Z,12.01
2023-03-06T09:09:25.257Z,11.83
2023-03-06T09:11:55.536Z,11.78
2023-03-06T09:14:22.201Z,11.80
2023-03-06T09:17:03.754Z,11.95
2023-03-06T09:19:30.811Z,12.53
2023-03-06T09:21:59.569Z,13.35
2023-03-06T09:24:31.664Z,13.28
2023-03-06T09:26:58.920Z,13.40
2023-03-06T09:29:27.424Z,13.21
2023-03-06T09:31:54.429Z,12.41
2023-03-06T09:34:24.600Z,11.77
2023-03-06T09:36:58.517Z,12.41
2023-03-06T09:39:27.119Z,14.08
2023-03-06T09:41:54.344Z,14.98
2023-03-06T09:44:31.007Z,15.51
2023-03-06T09:47:37.845Z,15.70
2023-03-06T09:50:30.963Z,15.54
2023-03-06T09:53:49.305Z,14.56
2023-03-06T09:56:31.135Z,13.52
2023-03-06T09:59:07.789Z,12.99
2023-03-06T10:01:53.526Z,12.89
2023-03-06T10:04:40.300Z,13.18
2023-03-06T10:07:24.284Z,13.43
2023-03-06T10:09:53.029Z,13.45
2023-03-06T10:12:27.214Z,13.24
2023-03-06T10:15:09.415Z,13.43
2023-03-06T10:17:42.548Z,13.64
2023-03-06T10:20:50.773Z,13.73
2023-03-06T10:23:52.110Z,13.50
2023-03-06T10:26:27.863Z,13.26
2023-03-06T10:29:22.541Z,13.31
2023-03-06T10:32:00.014Z,13.34
2023-03-06T10:34:34.610Z,13.34
2023-03-06T10:37:13.286Z,13.44
2023-03-06T10:39:40.380Z,12.88
2023-03-06T10:42:08.992Z,12.43
2023-03-06T10:44:36.249Z,12.33
2023-03-06T10:47:30.135Z,12.36
2023-03-06T10:50:04.991Z,12.55
2023-03-06T10:52:42.026Z,12.61
2023-03-06T10:55:29.434Z,12.07
2023-03-06T10:57:57.024Z,11.95
2023-03-06T11:00:28.408Z,11.93
2023-03-06T11:03:25.145Z,12.37
2023-03-06T11:06:10.013Z,12.69
2023-03-06T11:08:41.751Z,12.60
2023-03-06T11:11:22.402Z,12.52
2023-03-06T11:13:59.801Z,12.88
2023-03-06T11:16:30.879Z,12.48
2023-03-06T11:19:19.830Z,12.42
2023-03-06T11:22:19.774Z,11.71
2023-03-06T11:24:53.434Z,11.02
2023-03-06T11:27:36.350Z,11.19
2023-03-06T11:30:37.636Z,11.07
2023-03-06T11:33:22.771Z,11.17
2023-03-06T11:36:03.175Z,11.64
2023-03-06T11:38:49.761Z,11.76
2023-03-06T11:41:36.333Z,12.08
2023-03-06T11:44:19.990Z,11.77
2023-03-06T11:47:27.878Z,11.97
2023-03-06T11:50:21.654Z,13.11
2023-03-06T11:53:02.784Z,13.80
2023-03-06T11:56:04.267Z,13.71
2023-03-06T11:59:03.057Z,12.58
2023-03-06T12:01:41.839Z,11.89
2023-03-06T12:04:25.533Z,11.51
2023-03-06T12:07:04.309Z,11.33
2023-03-06T12:09:35.042Z,11.10
2023-03-06T12:12:19.373Z,11.01
2023-03-06T12:15:10.114Z,10.36
2023-03-06T12:18:04.649Z,10.05
2023-03-06T12:21:00.349Z,10.05
2023-03-06T12:23:45.799Z,10.03
2023-03-06T12:26:51.246Z,9.91
2023-03-06T12:29:48.395Z,10.04
2023-03-06T12:32:35.204Z,10.25
2023-03-06T12:35:34.620Z,9.95
2023-03-06T12:38:09.110Z,9.76
2023-03-06T12:41:05.777Z,9.86
2023-03-06T12:43:42.745Z,9.72
2023-03-06T12:46:28.567Z,9.42
2023-03-06T12:49:05.221Z,9.10
2023-03-06T12:51:32.787Z,8.93
2023-03-06T12:54:01.126Z,8.88
2023-03-06T12:56:30.037Z,8.87
2023-03-06T12:58:57.949Z,8.68
2023-03-06T13:01:39.488Z,8.79
2023-03-06T13:04:31.155Z,8.89
2023-03-06T13:07:11.185Z,8.92
2023-03-06T13:09:58.301Z,8.87
2023-03-06T13:12:50.089Z,8.99
2023-03-06T13:15:45.811Z,8.66
2023-03-06T13:18:21.223Z,8.94
2023-03-06T13:20:50.262Z,9.18
2023-03-06T13:23:50.626Z,9.06
2023-03-06T13:26:37.075Z,8.96
2023-03-06T13:29:35.711Z,9.06
2023-03-06T13:32:02.114Z,8.85
2023-03-06T13:34:31.329Z,8.76
2023-03-06T13:37:16.668Z,8.72
2023-03-06T13:39:52.330Z,8.71
2023-03-06T13:42:57.309Z,8.44
2023-03-06T13:45:27.569Z,8.31
2023-03-06T13:50:48.647Z,8.56
2023-03-06T13:53:40.649Z,8.46
2023-03-06T13:56:19.245Z,8.43
2023-03-06T13:59:06.271Z,8.45
2023-03-06T14:01:45.849Z,8.45
2023-03-06T14:04:34.322Z,8.49
2023-03-06T14:07:06.719Z,8.54
2023-03-06T14:09:38.730Z,8.49
2023-03-06T14:12:14.023Z,8.26
2023-03-06T14:14:43.786Z,8.10
2023-03-06T14:17:34.364Z,8.13
2023-03-06T14:20:15.133Z,8.16
2023-03-06T14:22:41.647Z,8.26
2023-03-06T14:25:35.543Z,8.29
2023-03-06T14:28:12.571Z,8.07
2023-03-06T14:30:50.015Z,7.93
2023-03-06T14:34:01.504Z,7.57
2023-03-06T14:36:35.580Z,7.32
2023-03-06T14:39:08.013Z,7.26
2023-03-06T14:41:36.391Z,7.19
2023-03-06T14:44:12.040Z,7.07
2023-03-06T14:46:38.571Z,6.93
2023-03-06T14:49:08.734Z,6.99
2023-03-06T14:51:43.106Z,6.83
2023-03-06T14:54:17.174Z,6.89
2023-03-06T14:59:48.735Z,6.94
2023-03-06T15:02:33.880Z,6.88
2023-03-06T15:05:06.026Z,6.61
2023-03-06T15:07:35.681Z,6.56
2023-03-06T15:10:02.267Z,6.63
2023-03-06T15:12:31.487Z,6.66
2023-03-06T15:15:00.530Z,6.69
2023-03-06T15:17:35.694Z,6.71
2023-03-06T15:20:02.290Z,6.69
2023-03-06T15:22:38.941Z,6.72
2023-03-06T15:25:20.602Z,6.85
2023-03-06T15:27:55.463Z,6.77
2023-03-06T15:30:28.340Z,6.75
2023-03-06T15:33:22.696Z,6.69
2023-03-06T15:35:56.133Z,6.67
2023-03-06T15:38:43.995Z,6.59
2023-03-06T15:41:29.817Z,6.52
2023-03-06T15:43:58.333Z,6.41
2023-03-06T15:46:24.966Z,6.29
2023-03-06T15:49:03.219Z,6.27
2023-03-06T15:51:31.202Z,6.21
2023-03-06T15:54:09.932Z,6.11
2023-03-06T15:56:41.845Z,6.03
2023-03-06T15:59:21.775Z,5.91
2023-03-06T16:01:49.181Z,5.84
2023-03-06T16:04:17.227Z,5.80
2023-03-06T16:06:47.427Z,5.76
2023-03-06T16:09:14.525Z,5.65
2023-03-06T16:11:47.200Z,5.53
2023-03-06T16:14:31.984Z,5.50
2023-03-06T16:16:59.622Z,5.33
2023-03-06T16:19:27.810Z,5.22
2023-03-06T16:21:55.959Z,5.20
2023-03-06T16:24:22.955Z,5.18
2023-03-06T16:26:52.639Z,5.09
2023-03-06T16:29:22.132Z,4.99
2023-03-06T16:31:48.982Z,4.94
2023-03-06T16:34:16.287Z,4.87
2023-03-06T16:36:42.797Z,4.83
2023-03-06T16:39:17.585Z,4.77
2023-03-06T16:41:45.862Z,4.74
2023-03-06T16:44:13.099Z,4.67
2023-03-06T16:46:42.503Z,4.59
2023-03-06T16:49:15.880Z,4.49
2023-03-06T16:51:42.337Z,4.48
2023-03-06T16:54:09.010Z,4.43
2023-03-06T16:56:35.717Z,4.30
2023-03-06T16:59:02.128Z,4.24
2023-03-06T17:01:28.572Z,4.22
2023-03-06T17:03:55.232Z,4.29
2023-03-06T17:06:22.886Z,4.24
2023-03-06T17:08:50.721Z,4.26
2023-03-06T17:11:20.198Z,4.20
2023-03-06T17:13:47.550Z,4.10
2023-03-06T17:16:18.353Z,4.07
2023-03-06T17:18:45.879Z,4.04
2023-03-06T17:21:15.590Z,4.03
2023-03-06T17:23:42.403Z,4.02
2023-03-06T17:26:12.273Z,3.98
2023-03-06T17:28:39.298Z,3.89
2023-03-06T17:31:26.695Z,3.84
2023-03-06T17:33:57.275Z,3.84
2023-03-06T17:36:23.724Z,3.80
2023-03-06T17:38:50.181Z,3.76
2023-03-06T17:41:16.736Z,3.77
2023-03-06T17:43:43.442Z,3.75
2023-03-06T17:46:12.460Z,3.76
2023-03-06T17:48:39.495Z,3.67
2023-03-06T17:51:06.784Z,3.73
2023-03-06T17:53:33.411Z,3.71
2023-03-06T17:56:00.006Z,3.70
2023-03-06T17:58:27.303Z,3.74
2023-03-06T18:00:53.899Z,3.75
2023-03-06T18:03:20.452Z,3.73
2023-03-06T18:05:46.947Z,3.72
2023-03-06T18:08:13.925Z,3.74
2023-03-06T18:10:41.828Z,3.73
2023-03-06T18:13:09.120Z,3.70
2023-03-06T18:15:39.662Z,3.69
2023-03-06T18:18:06.936Z,3.66
2023-03-06T18:20:33.640Z,3.58
2023-03-06T18:23:03.688Z,3.58
2023-03-06T18:25:31.433Z,3.62
2023-03-06T18:27:58.269Z,3.56
2023-03-06T18:30:24.973Z,3.60
2023-03-06T18:32:51.537Z,3.59
2023-03-06T18:35:18.213Z,3.52
2023-03-06T18:37:44.721Z,3.53
2023-03-06T18:40:11.959Z,3.46
2023-03-06T18:42:38.829Z,3.41
2023-03-06T18:45:05.761Z,3.38
2023-03-06T18:47:32.260Z,3.39
2023-03-06T18:49:58.745Z,3.39
2023-03-06T18:52:25.261Z,3.31
2023-03-06T18:54:51.732Z,3.28
2023-03-06T18:57:18.372Z,3.25
2023-03-06T18:59:45.233Z,3.23
2023-03-06T19:02:12.662Z,3.17
2023-03-06T19:04:41.806Z,3.14
2023-03-06T19:07:08.271Z,3.05
2023-03-06T19:09:34.923Z,2.98
2023-03-06T19:12:03.466Z,3.00
2023-03-06T19:14:29.974Z,2.96
2023-03-06T19:16:56.912Z,2.88
2023-03-06T19:19:26.604Z,2.87
2023-03-06T19:21:53.662Z,2.86
2023-03-06T19:24:20.262Z,2.83
2023-03-06T19:26:46.789Z,2.79
2023-03-06T19:29:13.637Z,2.80
2023-03-06T19:31:41.689Z,2.73
2023-03-06T19:34:08.682Z,2.71
2023-03-06T19:36:35.158Z,2.72
2023-03-06T19:39:04.296Z,2.72
2023-03-06T19:41:30.952Z,2.77
2023-03-06T19:43:59.490Z,2.79
2023-03-06T19:46:26.826Z,2.73
2023-03-06T19:48:58.455Z,2.71
2023-03-06T19:51:26.117Z,2.70
2023-03-06T19:53:53.353Z,2.67
2023-03-06T19:56:23.168Z,2.66
2023-03-06T19:58:49.749Z,2.65
2023-03-06T20:01:18.902Z,2.63
2023-03-06T20:03:45.547Z,2.63
2023-03-06T20:06:14.518Z,2.61
2023-03-06T20:08:45.309Z,2.58
2023-03-06T20:11:30.146Z,2.59
2023-03-06T20:13:58.782Z,2.61
2023-03-06T20:16:27.950Z,2.63
2023-03-06T20:18:58.034Z,2.63
2023-03-06T20:21:25.948Z,2.67
2023-03-06T20:23:54.742Z,2.68
2023-03-06T20:26:21.293Z,2.69
2023-03-06T20:28:47.728Z,2.73
2023-03-06T20:31:17.964Z,2.74
2023-03-06T20:33:51.124Z,2.79
2023-03-06T20:36:23.651Z,2.80
2023-03-06T20:38:50.676Z,2.86
2023-03-06T20:41:22.685Z,2.92
2023-03-06T20:43:50.029Z,2.95
2023-03-06T20:46:17.680Z,2.95
2023-03-06T20:48:48.456Z,2.98
2023-03-06T20:51:19.129Z,3.06
2023-03-06T20:53:50.439Z,3.13
2023-03-06T20:56:19.449Z,3.14
2023-03-06T20:58:46.247Z,3.15
2023-03-06T21:01:27.498Z,3.17
2023-03-06T21:03:54.734Z,3.20
2023-03-06T21:06:21.185Z,3.22
2023-03-06T21:08:47.984Z,3.25
2023-03-06T21:11:15.241Z,3.28
2023-03-06T21:13:42.432Z,3.32
2023-03-06T21:16:13.023Z,3.35
2023-03-06T21:18:40.338Z,3.36
2023-03-06T21:21:08.045Z,3.39
2023-03-06T21:23:34.634Z,3.40
2023-03-06T21:26:01.325Z,3.44
2023-03-06T21:28:27.824Z,3.45
2023-03-06T21:30:54.304Z,3.48
2023-03-06T21:33:20.770Z,3.49
2023-03-06T21:35:47.602Z,3.52
2023-03-06T21:38:14.415Z,3.54
2023-03-06T21:40:47.244Z,3.56
2023-03-06T21:43:15.816Z,3.61
2023-03-06T21:45:46.606Z,3.64
2023-03-06T21:48:14.889Z,3.66
2023-03-06T21:50:42.443Z,3.70
2023-03-06T21:53:09.348Z,3.72
2023-03-06T21:55:39.281Z,3.75
2023-03-06T21:58:05.789Z,3.79
2023-03-06T22:00:35.998Z,3.83
2023-03-06T22:03:06.647Z,3.89
2023-03-06T22:05:41.957Z,3.94
2023-03-06T22:08:11.247Z,3.99
2023-03-06T22:10:41.954Z,4.04
2023-03-06T22:13:08.430Z,4.06
2023-03-06T22:15:35.156Z,4.06
2023-03-06T22:18:01.602Z,4.04
2023-03-06T22:20:28.223Z,4.04
2023-03-06T22:22:54.787Z,4.03
2023-03-06T22:25:21.227Z,4.03
2023-03-06T22:28:26.099Z,4.00
2023-03-06T22:30:52.647Z,3.99
2023-03-06T22:36:06.401Z,3.95
2023-03-06T22:38:37.069Z,3.93
2023-03-06T22:41:04.814Z,3.94
2023-03-06T22:43:33.290Z,3.92
2023-03-06T22:46:06.161Z,3.88
2023-03-06T22:48:32.854Z,3.85
2023-03-06T22:51:07.432Z,3.84
2023-03-06T22:53:34.321Z,3.82
2023-03-06T22:56:02.373Z,3.80
2023-03-06T22:58:41.190Z,3.76
2023-03-06T23:01:12.806Z,3.74
2023-03-06T23:03:42.476Z,3.75
2023-03-06T23:06:14.523Z,3.77
2023-03-06T23:08:42.266Z,3.77
2023-03-06T23:11:11.938Z,3.76
2023-03-06T23:13:39.094Z,3.74
2023-03-06T23:16:06.751Z,3.74
2023-03-06T23:18:37.709Z,3.76
2023-03-06T23:21:13.031Z,3.76
2023-03-06T23:23:40.161Z,3.76
2023-03-06T23:26:08.100Z,3.75
2023-03-06T23:28:37.670Z,3.74
2023-03-06T23:31:09.230Z,3.74
2023-03-06T23:36:19.709Z,3.77
2023-03-06T23:38:46.768Z,3.81
2023-03-06T23:41:18.474Z,3.83
2023-03-06T23:43:46.262Z,3.85
2023-03-06T23:46:13.150Z,3.88
2023-03-06T23:48:41.289Z,3.91
2023-03-06T23:51:16.771Z,3.93
2023-03-06T23:53:45.207Z,3.97
2023-03-06T23:56:12.025Z,4.00
2023-03-06T23:58:38.793Z,4.00
